sensor_id;sensor_type;location;lat;lon;timestamp;temperature;humidity
52295;DHT22;38243;53.212;6.574;2022-12-13T00:01:39;13.50;88.10
52295;DHT22;38243;53.212;6.574;2022-12-13T00:04:07;13.50;88.30
52295;DHT22;38243;53.212;6.574;2022-12-13T00:06:34;13.50;88.30
52295;DHT22;38243;53.212;6.574;2022-12-13T00:09:01;13.50;88.20
52295;DHT22;38243;53.212;6.574;2022-12-13T00:11:27;13.50;88.30
52295;DHT22;38243;53.212;6.574;2022-12-13T00:13:53;13.50;88.30
52295;DHT22;38243;53.212;6.574;2022-12-13T00:16:21;13.50;88.60
52295;DHT22;38243;53.212;6.574;2022-12-13T00:18:48;13.50;88.50
52295;DHT22;38243;53.212;6.574;2022-12-13T00:21:16;13.40;88.60
52295;DHT22;38243;53.212;6.574;2022-12-13T00:23:42;13.40;88.70
52295;DHT22;38243;53.212;6.574;2022-12-13T00:26:14;13.50;88.60
52295;DHT22;38243;53.212;6.574;2022-12-13T00:28:40;13.40;88.70
52295;DHT22;38243;53.212;6.574;2022-12-13T00:31:07;13.40;88.70
52295;DHT22;38243;53.212;6.574;2022-12-13T00:33:33;13.40;88.70
52295;DHT22;38243;53.212;6.574;2022-12-13T00:35:58;13.40;88.70
52295;DHT22;38243;53.212;6.574;2022-12-13T00:38:24;13.40;88.70
52295;DHT22;38243;53.212;6.574;2022-12-13T00:40:50;13.40;88.70
52295;DHT22;38243;53.212;6.574;2022-12-13T00:43:17;13.40;88.70
52295;DHT22;38243;53.212;6.574;2022-12-13T00:45:43;13.40;88.70
52295;DHT22;38243;53.212;6.574;2022-12-13T00:48:09;13.40;88.80
52295;DHT22;38243;53.212;6.574;2022-12-13T00:50:34;13.40;88.80
52295;DHT22;38243;53.212;6.574;2022-12-13T00:53:01;13.40;88.90
52295;DHT22;38243;53.212;6.574;2022-12-13T00:55:27;13.40;90.00
52295;DHT22;38243;53.212;6.574;2022-12-13T00:57:53;13.40;89.90
52295;DHT22;38243;53.212;6.574;2022-12-13T01:00:19;13.40;89.60
52295;DHT22;38243;53.212;6.574;2022-12-13T01:02:45;13.40;89.50
52295;DHT22;38243;53.212;6.574;2022-12-13T01:05:11;13.40;89.40
52295;DHT22;38243;53.212;6.574;2022-12-13T01:07:37;13.40;89.30
52295;DHT22;38243;53.212;6.574;2022-12-13T01:10:07;13.40;89.30
52295;DHT22;38243;53.212;6.574;2022-12-13T01:12:33;13.40;89.20
52295;DHT22;38243;53.212;6.574;2022-12-13T01:14:59;13.40;89.30
52295;DHT22;38243;53.212;6.574;2022-12-13T01:17:25;13.40;89.30
52295;DHT22;38243;53.212;6.574;2022-12-13T01:19:51;13.40;89.40
52295;DHT22;38243;53.212;6.574;2022-12-13T01:22:17;13.40;89.40
52295;DHT22;38243;53.212;6.574;2022-12-13T01:24:43;13.40;89.30
52295;DHT22;38243;53.212;6.574;2022-12-13T01:27:09;13.40;89.20
52295;DHT22;38243;53.212;6.574;2022-12-13T01:29:35;13.40;89.30
52295;DHT22;38243;53.212;6.574;2022-12-13T01:32:01;13.40;89.30
52295;DHT22;38243;53.212;6.574;2022-12-13T01:34:26;13.40;89.40
52295;DHT22;38243;53.212;6.574;2022-12-13T01:36:53;13.30;89.40
52295;DHT22;38243;53.212;6.574;2022-12-13T01:39:19;13.30;89.30
52295;DHT22;38243;53.212;6.574;2022-12-13T01:41:47;13.30;89.30
52295;DHT22;38243;53.212;6.574;2022-12-13T01:44:55;13.30;89.30
52295;DHT22;38243;53.212;6.574;2022-12-13T01:50:17;13.30;89.30
52295;DHT22;38243;53.212;6.574;2022-12-13T01:52:45;13.30;89.40
52295;DHT22;38243;53.212;6.574;2022-12-13T01:55:13;13.30;89.30
52295;DHT22;38243;53.212;6.574;2022-12-13T01:57:41;13.30;89.50
52295;DHT22;38243;53.212;6.574;2022-12-13T02:00:09;13.30;89.40
52295;DHT22;38243;53.212;6.574;2022-12-13T02:02:36;13.30;89.40
52295;DHT22;38243;53.212;6.574;2022-12-13T02:05:08;13.30;89.40
52295;DHT22;38243;53.212;6.574;2022-12-13T02:07:37;13.30;89.40
52295;DHT22;38243;53.212;6.574;2022-12-13T02:10:05;13.30;89.40
52295;DHT22;38243;53.212;6.574;2022-12-13T02:12:34;13.30;89.40
52295;DHT22;38243;53.212;6.574;2022-12-13T02:15:04;13.30;89.50
52295;DHT22;38243;53.212;6.574;2022-12-13T02:17:56;13.30;89.40
52295;DHT22;38243;53.212;6.574;2022-12-13T02:34:28;13.30;89.50
52295;DHT22;38243;53.212;6.574;2022-12-13T02:37:04;13.30;89.40
52295;DHT22;38243;53.212;6.574;2022-12-13T02:39:35;13.30;89.40
52295;DHT22;38243;53.212;6.574;2022-12-13T02:42:14;13.30;89.30
52295;DHT22;38243;53.212;6.574;2022-12-13T02:44:52;13.30;89.30
52295;DHT22;38243;53.212;6.574;2022-12-13T02:47:24;13.30;89.30
52295;DHT22;38243;53.212;6.574;2022-12-13T02:49:54;13.20;89.10
52295;DHT22;38243;53.212;6.574;2022-12-13T02:52:24;13.30;89.30
52295;DHT22;38243;53.212;6.574;2022-12-13T02:54:53;13.20;89.20
52295;DHT22;38243;53.212;6.574;2022-12-13T02:57:37;13.20;89.30
52295;DHT22;38243;53.212;6.574;2022-12-13T03:00:16;13.20;89.40
52295;DHT22;38243;53.212;6.574;2022-12-13T03:08:23;13.20;89.50
52295;DHT22;38243;53.212;6.574;2022-12-13T03:10:56;13.20;89.60
52295;DHT22;38243;53.212;6.574;2022-12-13T03:16:22;13.20;89.60
52295;DHT22;38243;53.212;6.574;2022-12-13T03:18:53;13.20;89.50
52295;DHT22;38243;53.212;6.574;2022-12-13T03:21:19;13.20;89.50
52295;DHT22;38243;53.212;6.574;2022-12-13T03:23:45;13.20;89.60
52295;DHT22;38243;53.212;6.574;2022-12-13T03:26:20;13.20;89.60
52295;DHT22;38243;53.212;6.574;2022-12-13T03:28:46;13.20;89.50
52295;DHT22;38243;53.212;6.574;2022-12-13T03:31:12;13.20;89.60
52295;DHT22;38243;53.212;6.574;2022-12-13T03:33:38;13.20;89.50
52295;DHT22;38243;53.212;6.574;2022-12-13T03:36:04;13.20;89.60
52295;DHT22;38243;53.212;6.574;2022-12-13T03:38:30;13.20;89.50
52295;DHT22;38243;53.212;6.574;2022-12-13T03:41:03;13.20;89.30
52295;DHT22;38243;53.212;6.574;2022-12-13T03:43:32;13.20;89.50
52295;DHT22;38243;53.212;6.574;2022-12-13T03:45:58;13.20;89.60
52295;DHT22;38243;53.212;6.574;2022-12-13T03:48:25;13.20;89.60
52295;DHT22;38243;53.212;6.574;2022-12-13T03:50:53;13.20;89.60
52295;DHT22;38243;53.212;6.574;2022-12-13T03:53:20;13.20;89.60
52295;DHT22;38243;53.212;6.574;2022-12-13T03:55:47;13.40;89.50
52295;DHT22;38243;53.212;6.574;2022-12-13T03:58:12;13.20;89.40
52295;DHT22;38243;53.212;6.574;2022-12-13T04:00:38;13.10;89.40
52295;DHT22;38243;53.212;6.574;2022-12-13T04:03:04;13.10;89.40
52295;DHT22;38243;53.212;6.574;2022-12-13T04:05:30;13.10;89.40
52295;DHT22;38243;53.212;6.574;2022-12-13T04:07:56;13.10;89.30
52295;DHT22;38243;53.212;6.574;2022-12-13T04:10:23;13.10;89.20
52295;DHT22;38243;53.212;6.574;2022-12-13T04:12:49;13.10;89.30
52295;DHT22;38243;53.212;6.574;2022-12-13T04:15:33;13.10;89.40
52295;DHT22;38243;53.212;6.574;2022-12-13T04:17:58;13.10;89.50
52295;DHT22;38243;53.212;6.574;2022-12-13T04:20:24;13.10;89.50
52295;DHT22;38243;53.212;6.574;2022-12-13T04:22:50;13.10;89.50
52295;DHT22;38243;53.212;6.574;2022-12-13T04:25:16;13.10;89.50
52295;DHT22;38243;53.212;6.574;2022-12-13T04:27:44;13.10;89.60
52295;DHT22;38243;53.212;6.574;2022-12-13T04:30:11;13.10;89.50
52295;DHT22;38243;53.212;6.574;2022-12-13T04:32:37;13.20;89.60
52295;DHT22;38243;53.212;6.574;2022-12-13T04:35:03;13.10;89.60
52295;DHT22;38243;53.212;6.574;2022-12-13T04:37:30;13.10;89.70
52295;DHT22;38243;53.212;6.574;2022-12-13T04:39:55;13.10;89.60
52295;DHT22;38243;53.212;6.574;2022-12-13T04:42:21;13.10;89.60
52295;DHT22;38243;53.212;6.574;2022-12-13T04:44:47;13.10;89.60
52295;DHT22;38243;53.212;6.574;2022-12-13T04:47:15;13.10;89.80
52295;DHT22;38243;53.212;6.574;2022-12-13T04:49:40;13.10;89.70
52295;DHT22;38243;53.212;6.574;2022-12-13T04:52:06;13.10;89.60
52295;DHT22;38243;53.212;6.574;2022-12-13T04:54:32;13.10;89.70
52295;DHT22;38243;53.212;6.574;2022-12-13T04:56:58;13.00;89.80
52295;DHT22;38243;53.212;6.574;2022-12-13T04:59:24;13.00;89.70
52295;DHT22;38243;53.212;6.574;2022-12-13T05:01:50;13.00;89.70
52295;DHT22;38243;53.212;6.574;2022-12-13T05:04:16;13.00;89.70
52295;DHT22;38243;53.212;6.574;2022-12-13T05:06:42;13.10;89.70
52295;DHT22;38243;53.212;6.574;2022-12-13T05:09:07;13.00;89.70
52295;DHT22;38243;53.212;6.574;2022-12-13T05:11:33;13.00;89.70
52295;DHT22;38243;53.212;6.574;2022-12-13T05:13:59;13.10;89.60
52295;DHT22;38243;53.212;6.574;2022-12-13T05:16:25;13.00;89.50
52295;DHT22;38243;53.212;6.574;2022-12-13T05:18:51;13.00;89.50
52295;DHT22;38243;53.212;6.574;2022-12-13T05:21:17;13.00;89.60
52295;DHT22;38243;53.212;6.574;2022-12-13T05:23:42;13.00;89.50
52295;DHT22;38243;53.212;6.574;2022-12-13T05:26:09;13.00;89.60
52295;DHT22;38243;53.212;6.574;2022-12-13T05:28:34;13.10;89.60
52295;DHT22;38243;53.212;6.574;2022-12-13T05:31:11;13.00;89.50
52295;DHT22;38243;53.212;6.574;2022-12-13T05:33:37;13.00;89.60
52295;DHT22;38243;53.212;6.574;2022-12-13T05:36:04;13.00;89.50
52295;DHT22;38243;53.212;6.574;2022-12-13T05:38:30;13.00;89.60
52295;DHT22;38243;53.212;6.574;2022-12-13T05:40:56;13.00;89.60
52295;DHT22;38243;53.212;6.574;2022-12-13T05:43:22;13.00;89.60
52295;DHT22;38243;53.212;6.574;2022-12-13T05:45:49;13.00;89.70
52295;DHT22;38243;53.212;6.574;2022-12-13T05:48:15;13.00;89.60
52295;DHT22;38243;53.212;6.574;2022-12-13T05:50:41;13.00;89.60
52295;DHT22;38243;53.212;6.574;2022-12-13T05:53:08;13.00;89.60
52295;DHT22;38243;53.212;6.574;2022-12-13T05:55:36;13.00;89.60
52295;DHT22;38243;53.212;6.574;2022-12-13T05:58:04;13.00;89.70
52295;DHT22;38243;53.212;6.574;2022-12-13T06:00:30;13.00;89.80
52295;DHT22;38243;53.212;6.574;2022-12-13T06:02:57;13.00;89.80
52295;DHT22;38243;53.212;6.574;2022-12-13T06:05:23;13.00;89.70
52295;DHT22;38243;53.212;6.574;2022-12-13T06:07:49;12.90;89.70
52295;DHT22;38243;53.212;6.574;2022-12-13T06:10:15;13.00;89.80
52295;DHT22;38243;53.212;6.574;2022-12-13T06:12:41;12.90;89.80
52295;DHT22;38243;53.212;6.574;2022-12-13T06:15:07;13.00;89.80
52295;DHT22;38243;53.212;6.574;2022-12-13T06:17:34;13.00;89.90
52295;DHT22;38243;53.212;6.574;2022-12-13T06:20:00;12.90;89.70
52295;DHT22;38243;53.212;6.574;2022-12-13T06:22:26;12.90;89.80
52295;DHT22;38243;53.212;6.574;2022-12-13T06:24:52;12.90;89.80
52295;DHT22;38243;53.212;6.574;2022-12-13T06:27:18;12.90;89.90
52295;DHT22;38243;53.212;6.574;2022-12-13T06:29:44;12.90;89.80
52295;DHT22;38243;53.212;6.574;2022-12-13T06:32:10;12.90;89.80
52295;DHT22;38243;53.212;6.574;2022-12-13T06:34:36;12.90;89.80
52295;DHT22;38243;53.212;6.574;2022-12-13T06:37:07;12.90;89.60
52295;DHT22;38243;53.212;6.574;2022-12-13T06:39:33;12.90;89.60
52295;DHT22;38243;53.212;6.574;2022-12-13T06:42:01;12.90;89.70
52295;DHT22;38243;53.212;6.574;2022-12-13T06:44:27;12.90;89.60
52295;DHT22;38243;53.212;6.574;2022-12-13T06:46:53;12.90;89.50
52295;DHT22;38243;53.212;6.574;2022-12-13T06:49:18;12.90;89.60
52295;DHT22;38243;53.212;6.574;2022-12-13T06:51:44;12.90;89.50
52295;DHT22;38243;53.212;6.574;2022-12-13T06:54:10;12.90;89.50
52295;DHT22;38243;53.212;6.574;2022-12-13T06:56:36;12.90;89.50
52295;DHT22;38243;53.212;6.574;2022-12-13T06:59:02;12.90;89.50
52295;DHT22;38243;53.212;6.574;2022-12-13T07:01:28;12.90;89.50
52295;DHT22;38243;53.212;6.574;2022-12-13T07:03:55;12.90;89.50
52295;DHT22;38243;53.212;6.574;2022-12-13T07:06:22;12.90;87.80
52295;DHT22;38243;53.212;6.574;2022-12-13T07:08:50;12.90;85.70
52295;DHT22;38243;53.212;6.574;2022-12-13T07:11:19;12.90;85.80
52295;DHT22;38243;53.212;6.574;2022-12-13T07:13:45;12.90;86.00
52295;DHT22;38243;53.212;6.574;2022-12-13T07:16:11;12.90;85.40
52295;DHT22;38243;53.212;6.574;2022-12-13T07:18:37;12.70;86.10
52295;DHT22;38243;53.212;6.574;2022-12-13T07:21:07;12.90;84.80
52295;DHT22;38243;53.212;6.574;2022-12-13T07:23:34;12.80;84.30
52295;DHT22;38243;53.212;6.574;2022-12-13T07:26:00;12.70;83.70
52295;DHT22;38243;53.212;6.574;2022-12-13T07:28:27;12.70;83.90
52295;DHT22;38243;53.212;6.574;2022-12-13T07:30:52;12.70;82.90
52295;DHT22;38243;53.212;6.574;2022-12-13T07:33:18;12.60;83.40
52295;DHT22;38243;53.212;6.574;2022-12-13T07:35:44;12.50;81.40
52295;DHT22;38243;53.212;6.574;2022-12-13T07:38:10;12.60;81.30
52295;DHT22;38243;53.212;6.574;2022-12-13T07:40:38;12.40;81.70
52295;DHT22;38243;53.212;6.574;2022-12-13T07:43:04;12.30;80.80
52295;DHT22;38243;53.212;6.574;2022-12-13T07:45:30;12.30;80.90
52295;DHT22;38243;53.212;6.574;2022-12-13T07:47:56;12.30;80.60
52295;DHT22;38243;53.212;6.574;2022-12-13T07:50:22;12.20;80.50
52295;DHT22;38243;53.212;6.574;2022-12-13T07:52:49;12.20;81.60
52295;DHT22;38243;53.212;6.574;2022-12-13T07:55:16;12.20;81.70
52295;DHT22;38243;53.212;6.574;2022-12-13T07:57:43;12.20;82.00
52295;DHT22;38243;53.212;6.574;2022-12-13T08:00:09;12.30;83.00
52295;DHT22;38243;53.212;6.574;2022-12-13T08:02:35;12.40;85.30
52295;DHT22;38243;53.212;6.574;2022-12-13T08:05:01;12.40;85.90
52295;DHT22;38243;53.212;6.574;2022-12-13T08:07:27;12.50;86.40
52295;DHT22;38243;53.212;6.574;2022-12-13T08:09:53;12.60;86.60
52295;DHT22;38243;53.212;6.574;2022-12-13T08:12:21;12.60;84.20
52295;DHT22;38243;53.212;6.574;2022-12-13T08:14:47;12.50;80.10
52295;DHT22;38243;53.212;6.574;2022-12-13T08:17:13;12.50;78.60
52295;DHT22;38243;53.212;6.574;2022-12-13T08:19:38;12.50;80.10
52295;DHT22;38243;53.212;6.574;2022-12-13T08:22:04;12.50;80.00
52295;DHT22;38243;53.212;6.574;2022-12-13T08:24:31;12.60;80.40
52295;DHT22;38243;53.212;6.574;2022-12-13T08:26:58;12.60;80.10
52295;DHT22;38243;53.212;6.574;2022-12-13T08:29:29;12.70;80.00
52295;DHT22;38243;53.212;6.574;2022-12-13T08:31:55;12.80;79.90
52295;DHT22;38243;53.212;6.574;2022-12-13T08:34:20;13.70;80.30
52295;DHT22;38243;53.212;6.574;2022-12-13T08:36:46;12.90;80.10
52295;DHT22;38243;53.212;6.574;2022-12-13T08:39:12;12.90;80.00
52295;DHT22;38243;53.212;6.574;2022-12-13T08:41:38;13.00;80.40
52295;DHT22;38243;53.212;6.574;2022-12-13T08:44:04;13.00;79.70
52295;DHT22;38243;53.212;6.574;2022-12-13T08:46:29;13.10;80.10
52295;DHT22;38243;53.212;6.574;2022-12-13T08:48:55;13.20;80.80
52295;DHT22;38243;53.212;6.574;2022-12-13T08:51:21;13.20;80.40
52295;DHT22;38243;53.212;6.574;2022-12-13T08:53:52;13.30;80.30
52295;DHT22;38243;53.212;6.574;2022-12-13T08:56:18;13.30;80.40
52295;DHT22;38243;53.212;6.574;2022-12-13T08:58:48;13.40;80.80
52295;DHT22;38243;53.212;6.574;2022-12-13T09:01:15;13.40;81.10
52295;DHT22;38243;53.212;6.574;2022-12-13T09:03:41;13.50;80.30
52295;DHT22;38243;53.212;6.574;2022-12-13T09:06:18;13.50;81.30
52295;DHT22;38243;53.212;6.574;2022-12-13T09:08:44;13.60;82.90
52295;DHT22;38243;53.212;6.574;2022-12-13T09:11:10;13.70;83.00
52295;DHT22;38243;53.212;6.574;2022-12-13T09:13:37;13.80;82.90
52295;DHT22;38243;53.212;6.574;2022-12-13T09:16:09;13.80;81.30
52295;DHT22;38243;53.212;6.574;2022-12-13T09:18:35;13.80;82.10
52295;DHT22;38243;53.212;6.574;2022-12-13T09:21:06;13.90;80.90
52295;DHT22;38243;53.212;6.574;2022-12-13T09:23:32;13.80;81.10
52295;DHT22;38243;53.212;6.574;2022-12-13T09:25:59;13.80;80.80
52295;DHT22;38243;53.212;6.574;2022-12-13T09:28:27;13.80;81.00
52295;DHT22;38243;53.212;6.574;2022-12-13T09:30:54;13.80;81.10
52295;DHT22;38243;53.212;6.574;2022-12-13T09:33:20;13.80;81.50
52295;DHT22;38243;53.212;6.574;2022-12-13T09:35:46;13.80;81.20
52295;DHT22;38243;53.212;6.574;2022-12-13T09:38:12;13.80;80.90
52295;DHT22;38243;53.212;6.574;2022-12-13T09:40:39;13.80;81.10
52295;DHT22;38243;53.212;6.574;2022-12-13T09:43:05;13.80;81.30
52295;DHT22;38243;53.212;6.574;2022-12-13T09:45:33;13.80;81.70
52295;DHT22;38243;53.212;6.574;2022-12-13T09:48:00;13.80;81.10
52295;DHT22;38243;53.212;6.574;2022-12-13T09:50:32;13.80;81.30
52295;DHT22;38243;53.212;6.574;2022-12-13T09:53:05;13.80;81.80
52295;DHT22;38243;53.212;6.574;2022-12-13T09:55:57;13.80;82.00
52295;DHT22;38243;53.212;6.574;2022-12-13T09:58:27;13.80;81.80
52295;DHT22;38243;53.212;6.574;2022-12-13T10:00:55;13.90;81.40
52295;DHT22;38243;53.212;6.574;2022-12-13T10:03:22;13.80;81.70
52295;DHT22;38243;53.212;6.574;2022-12-13T10:06:15;13.80;81.80
52295;DHT22;38243;53.212;6.574;2022-12-13T10:08:47;13.90;81.70
52295;DHT22;38243;53.212;6.574;2022-12-13T10:11:16;13.80;81.70
52295;DHT22;38243;53.212;6.574;2022-12-13T10:14:04;13.90;82.40
52295;DHT22;38243;53.212;6.574;2022-12-13T10:19:01;13.90;81.80
52295;DHT22;38243;53.212;6.574;2022-12-13T10:21:37;13.90;81.60
52295;DHT22;38243;53.212;6.574;2022-12-13T10:24:26;13.90;81.90
52295;DHT22;38243;53.212;6.574;2022-12-13T10:27:10;13.90;82.00
52295;DHT22;38243;53.212;6.574;2022-12-13T10:29:59;13.90;81.60
52295;DHT22;38243;53.212;6.574;2022-12-13T10:32:26;13.90;81.80
52295;DHT22;38243;53.212;6.574;2022-12-13T10:34:53;13.90;81.70
52295;DHT22;38243;53.212;6.574;2022-12-13T10:39:48;14.00;81.70
52295;DHT22;38243;53.212;6.574;2022-12-13T10:42:17;14.00;81.90
52295;DHT22;38243;53.212;6.574;2022-12-13T10:44:43;14.00;81.70
52295;DHT22;38243;53.212;6.574;2022-12-13T10:49:53;14.20;82.80
52295;DHT22;38243;53.212;6.574;2022-12-13T10:52:33;14.30;82.00
52295;DHT22;38243;53.212;6.574;2022-12-13T10:55:21;14.30;81.10
52295;DHT22;38243;53.212;6.574;2022-12-13T10:57:51;14.40;80.40
52295;DHT22;38243;53.212;6.574;2022-12-13T11:00:36;14.40;80.70
52295;DHT22;38243;53.212;6.574;2022-12-13T11:03:03;14.50;81.20
52295;DHT22;38243;53.212;6.574;2022-12-13T11:05:32;14.40;77.30
52295;DHT22;38243;53.212;6.574;2022-12-13T11:08:21;14.20;73.30
52295;DHT22;38243;53.212;6.574;2022-12-13T11:11:03;14.00;73.50
52295;DHT22;38243;53.212;6.574;2022-12-13T11:13:38;14.10;79.10
52295;DHT22;38243;53.212;6.574;2022-12-13T11:16:32;14.30;79.20
52295;DHT22;38243;53.212;6.574;2022-12-13T11:19:02;14.20;73.10
52295;DHT22;38243;53.212;6.574;2022-12-13T11:21:32;14.00;70.60
52295;DHT22;38243;53.212;6.574;2022-12-13T11:24:04;13.80;72.10
52295;DHT22;38243;53.212;6.574;2022-12-13T11:26:34;13.70;71.60
52295;DHT22;38243;53.212;6.574;2022-12-13T11:29:13;13.50;70.00
52295;DHT22;38243;53.212;6.574;2022-12-13T11:35:05;13.30;70.30
52295;DHT22;38243;53.212;6.574;2022-12-13T11:37:43;13.10;69.40
52295;DHT22;38243;53.212;6.574;2022-12-13T11:40:12;13.10;70.10
52295;DHT22;38243;53.212;6.574;2022-12-13T11:45:57;12.90;69.80
52295;DHT22;38243;53.212;6.574;2022-12-13T11:48:35;12.80;70.50
52295;DHT22;38243;53.212;6.574;2022-12-13T11:51:07;12.80;70.30
52295;DHT22;38243;53.212;6.574;2022-12-13T11:56:30;12.70;69.80
52295;DHT22;38243;53.212;6.574;2022-12-13T12:04:51;12.60;70.10
52295;DHT22;38243;53.212;6.574;2022-12-13T12:07:38;12.60;69.90
52295;DHT22;38243;53.212;6.574;2022-12-13T12:10:28;12.50;70.00
52295;DHT22;38243;53.212;6.574;2022-12-13T12:13:06;12.50;70.40
52295;DHT22;38243;53.212;6.574;2022-12-13T12:15:40;12.50;69.40
52295;DHT22;38243;53.212;6.574;2022-12-13T12:18:14;12.40;69.00
52295;DHT22;38243;53.212;6.574;2022-12-13T12:21:02;12.20;69.40
52295;DHT22;38243;53.212;6.574;2022-12-13T12:26:17;11.60;67.30
52295;DHT22;38243;53.212;6.574;2022-12-13T12:34:00;12.20;69.70
52295;DHT22;38243;53.212;6.574;2022-12-13T12:39:33;12.20;70.00
52295;DHT22;38243;53.212;6.574;2022-12-13T12:48:27;12.00;68.30
52295;DHT22;38243;53.212;6.574;2022-12-13T12:51:06;12.00;69.00
52295;DHT22;38243;53.212;6.574;2022-12-13T13:02:15;13.00;76.60
52295;DHT22;38243;53.212;6.574;2022-12-13T13:04:45;13.20;78.30
52295;DHT22;38243;53.212;6.574;2022-12-13T13:07:30;13.40;78.20
52295;DHT22;38243;53.212;6.574;2022-12-13T13:09:58;13.40;78.00
52295;DHT22;38243;53.212;6.574;2022-12-13T13:12:26;13.60;77.60
52295;DHT22;38243;53.212;6.574;2022-12-13T13:14:53;13.70;77.50
52295;DHT22;38243;53.212;6.574;2022-12-13T13:22:34;13.90;77.30
52295;DHT22;38243;53.212;6.574;2022-12-13T13:27:45;14.00;76.90
52295;DHT22;38243;53.212;6.574;2022-12-13T13:30:24;14.10;76.90
52295;DHT22;38243;53.212;6.574;2022-12-13T13:32:51;14.10;77.30
52295;DHT22;38243;53.212;6.574;2022-12-13T13:38:07;14.20;77.60
52295;DHT22;38243;53.212;6.574;2022-12-13T13:40:49;14.30;78.90
52295;DHT22;38243;53.212;6.574;2022-12-13T13:43:16;14.30;78.60
52295;DHT22;38243;53.212;6.574;2022-12-13T14:10:49;14.40;77.90
52295;DHT22;38243;53.212;6.574;2022-12-13T14:24:58;14.20;76.30
52295;DHT22;38243;53.212;6.574;2022-12-13T14:27:52;14.20;76.50
52295;DHT22;38243;53.212;6.574;2022-12-13T14:30:21;14.20;76.70
52295;DHT22;38243;53.212;6.574;2022-12-13T14:32:48;14.20;76.20
52295;DHT22;38243;53.212;6.574;2022-12-13T14:35:23;14.20;76.20
52295;DHT22;38243;53.212;6.574;2022-12-13T14:38:01;14.20;76.20
52295;DHT22;38243;53.212;6.574;2022-12-13T14:40:32;14.20;76.60
52295;DHT22;38243;53.212;6.574;2022-12-13T14:42:59;14.20;76.90
52295;DHT22;38243;53.212;6.574;2022-12-13T14:45:38;14.20;77.40
52295;DHT22;38243;53.212;6.574;2022-12-13T14:48:12;14.10;77.30
52295;DHT22;38243;53.212;6.574;2022-12-13T14:50:40;14.10;77.70
52295;DHT22;38243;53.212;6.574;2022-12-13T14:53:27;14.10;78.00
52295;DHT22;38243;53.212;6.574;2022-12-13T14:56:13;14.10;78.20
52295;DHT22;38243;53.212;6.574;2022-12-13T14:58:54;14.20;78.50
52295;DHT22;38243;53.212;6.574;2022-12-13T15:01:33;14.20;78.40
52295;DHT22;38243;53.212;6.574;2022-12-13T15:04:22;14.20;78.70
52295;DHT22;38243;53.212;6.574;2022-12-13T15:06:56;14.20;78.80
52295;DHT22;38243;53.212;6.574;2022-12-13T15:09:23;14.20;78.90
52295;DHT22;38243;53.212;6.574;2022-12-13T15:11:51;14.20;78.80
52295;DHT22;38243;53.212;6.574;2022-12-13T15:14:19;14.20;79.60
52295;DHT22;38243;53.212;6.574;2022-12-13T15:16:51;14.20;80.10
52295;DHT22;38243;53.212;6.574;2022-12-13T15:19:20;14.20;80.60
52295;DHT22;38243;53.212;6.574;2022-12-13T15:24:32;14.30;81.20
52295;DHT22;38243;53.212;6.574;2022-12-13T15:26:59;14.30;81.60
52295;DHT22;38243;53.212;6.574;2022-12-13T15:29:28;14.30;80.90
52295;DHT22;38243;53.212;6.574;2022-12-13T15:31:54;14.30;80.80
52295;DHT22;38243;53.212;6.574;2022-12-13T15:36:55;14.30;81.40
52295;DHT22;38243;53.212;6.574;2022-12-13T15:39:23;14.30;81.30
52295;DHT22;38243;53.212;6.574;2022-12-13T15:41:52;14.30;81.60
52295;DHT22;38243;53.212;6.574;2022-12-13T15:44:37;14.30;81.30
52295;DHT22;38243;53.212;6.574;2022-12-13T15:47:10;14.30;81.60
52295;DHT22;38243;53.212;6.574;2022-12-13T15:49:44;14.30;81.70
52295;DHT22;38243;53.212;6.574;2022-12-13T15:54:40;14.30;81.50
52295;DHT22;38243;53.212;6.574;2022-12-13T15:57:21;14.30;81.80
52295;DHT22;38243;53.212;6.574;2022-12-13T15:59:47;14.30;81.90
52295;DHT22;38243;53.212;6.574;2022-12-13T16:02:21;14.30;81.90
52295;DHT22;38243;53.212;6.574;2022-12-13T16:04:49;14.30;82.10
52295;DHT22;38243;53.212;6.574;2022-12-13T16:07:24;14.40;82.40
52295;DHT22;38243;53.212;6.574;2022-12-13T16:09:53;14.30;82.30
52295;DHT22;38243;53.212;6.574;2022-12-13T16:12:43;14.40;82.80
52295;DHT22;38243;53.212;6.574;2022-12-13T16:15:25;14.40;82.60
52295;DHT22;38243;53.212;6.574;2022-12-13T16:17:54;14.40;82.80
52295;DHT22;38243;53.212;6.574;2022-12-13T16:20:21;14.40;82.60
52295;DHT22;38243;53.212;6.574;2022-12-13T16:22:47;14.40;83.00
52295;DHT22;38243;53.212;6.574;2022-12-13T16:25:17;14.40;82.50
52295;DHT22;38243;53.212;6.574;2022-12-13T16:27:43;14.40;82.80
52295;DHT22;38243;53.212;6.574;2022-12-13T16:33:14;14.40;82.70
52295;DHT22;38243;53.212;6.574;2022-12-13T16:35:40;14.50;82.90
52295;DHT22;38243;53.212;6.574;2022-12-13T16:38:09;14.50;82.70
52295;DHT22;38243;53.212;6.574;2022-12-13T16:40:36;14.50;82.70
52295;DHT22;38243;53.212;6.574;2022-12-13T16:43:03;14.50;83.00
52295;DHT22;38243;53.212;6.574;2022-12-13T16:45:38;14.50;83.60
52295;DHT22;38243;53.212;6.574;2022-12-13T16:48:05;15.10;83.80
52295;DHT22;38243;53.212;6.574;2022-12-13T16:50:31;14.40;83.00
52295;DHT22;38243;53.212;6.574;2022-12-13T16:52:57;14.30;82.50
52295;DHT22;38243;53.212;6.574;2022-12-13T16:55:23;14.30;82.20
52295;DHT22;38243;53.212;6.574;2022-12-13T16:58:02;14.30;82.00
52295;DHT22;38243;53.212;6.574;2022-12-13T17:00:29;14.20;81.60
52295;DHT22;38243;53.212;6.574;2022-12-13T17:02:56;14.20;81.30
52295;DHT22;38243;53.212;6.574;2022-12-13T17:05:24;14.20;81.60
52295;DHT22;38243;53.212;6.574;2022-12-13T17:07:50;14.20;81.30
52295;DHT22;38243;53.212;6.574;2022-12-13T17:10:17;14.10;81.40
52295;DHT22;38243;53.212;6.574;2022-12-13T17:12:43;14.10;81.10
52295;DHT22;38243;53.212;6.574;2022-12-13T17:15:09;14.10;81.10
52295;DHT22;38243;53.212;6.574;2022-12-13T17:17:38;14.10;81.00
52295;DHT22;38243;53.212;6.574;2022-12-13T17:20:10;14.00;81.10
52295;DHT22;38243;53.212;6.574;2022-12-13T17:22:36;14.00;81.00
52295;DHT22;38243;53.212;6.574;2022-12-13T17:25:03;14.00;81.10
52295;DHT22;38243;53.212;6.574;2022-12-13T17:27:30;14.00;81.00
52295;DHT22;38243;53.212;6.574;2022-12-13T17:29:56;14.00;81.00
52295;DHT22;38243;53.212;6.574;2022-12-13T17:32:23;14.00;80.60
52295;DHT22;38243;53.212;6.574;2022-12-13T17:34:50;14.00;80.70
52295;DHT22;38243;53.212;6.574;2022-12-13T17:37:16;13.90;81.00
52295;DHT22;38243;53.212;6.574;2022-12-13T17:39:45;13.90;79.40
52295;DHT22;38243;53.212;6.574;2022-12-13T17:42:11;13.90;79.00
52295;DHT22;38243;53.212;6.574;2022-12-13T17:44:36;13.90;78.40
52295;DHT22;38243;53.212;6.574;2022-12-13T17:47:03;13.80;78.10
52295;DHT22;38243;53.212;6.574;2022-12-13T17:49:29;13.80;77.50
52295;DHT22;38243;53.212;6.574;2022-12-13T17:51:55;13.80;77.50
52295;DHT22;38243;53.212;6.574;2022-12-13T17:54:23;13.70;77.30
52295;DHT22;38243;53.212;6.574;2022-12-13T17:56:50;13.70;77.40